createdAt,value
2019-02-09T00:02:40.616Z,4.81
2019-02-09T00:07:42.725Z,4.80
2019-02-09T00:12:44.743Z,5.02
2019-02-09T00:17:46.672Z,4.99
2019-02-09T00:22:49.169Z,4.99
2019-02-09T00:27:51.804Z,4.99
2019-02-09T00:32:53.845Z,4.90
2019-02-09T00:37:55.842Z,4.90
2019-02-09T00:42:57.931Z,4.90
2019-02-09T00:47:59.925Z,4.89
2019-02-09T00:53:01.998Z,5.25
2019-02-09T00:58:04.225Z,5.68
2019-02-09T01:03:06.336Z,5.89
2019-02-09T01:08:08.563Z,6.05
2019-02-09T01:13:10.606Z,6.07
2019-02-09T01:18:12.511Z,6.14
2019-02-09T01:23:14.549Z,6.03
2019-02-09T01:28:16.625Z,6.00
2019-02-09T01:33:19.613Z,5.99
2019-02-09T01:38:21.703Z,5.84
2019-02-09T01:43:24.003Z,5.90
2019-02-09T01:48:26.130Z,5.92
2019-02-09T01:53:28.169Z,5.93
2019-02-09T01:58:46.314Z,5.99
2019-02-09T02:03:48.322Z,5.94
2019-02-09T02:08:51.255Z,5.96
2019-02-09T02:13:53.656Z,5.86
2019-02-09T02:18:55.673Z,5.73
2019-02-09T02:23:57.766Z,5.62
2019-02-09T02:28:59.870Z,5.44
2019-02-09T02:34:01.992Z,5.44
2019-02-09T02:39:08.749Z,5.42
2019-02-09T02:44:11.042Z,5.40
2019-02-09T02:49:13.050Z,5.39
2019-02-09T02:54:16.226Z,5.53
2019-02-09T02:59:18.269Z,5.42
2019-02-09T03:04:20.779Z,5.47
2019-02-09T03:09:22.708Z,5.46
2019-02-09T03:14:24.654Z,5.44
2019-02-09T03:19:26.653Z,5.28
2019-02-09T03:24:28.540Z,5.30
2019-02-09T03:29:31.148Z,5.32
2019-02-09T03:34:33.071Z,5.29
2019-02-09T03:39:34.944Z,5.33
2019-02-09T03:44:36.968Z,5.37
2019-02-09T03:49:38.849Z,5.38
2019-02-09T03:54:40.942Z,5.24
2019-02-09T03:59:43.463Z,5.12
2019-02-09T04:04:45.473Z,5.18
2019-02-09T04:09:47.374Z,5.22
2019-02-09T04:14:50.607Z,5.33
2019-02-09T04:19:52.618Z,5.76
2019-02-09T04:24:54.497Z,5.88
2019-02-09T04:29:56.698Z,6.00
2019-02-09T04:34:58.697Z,6.07
2019-02-09T04:40:00.593Z,6.20
2019-02-09T04:45:03.653Z,6.28
2019-02-09T04:50:06.438Z,6.26
2019-02-09T04:55:12.173Z,6.28
2019-02-09T05:00:16.977Z,6.22
2019-02-09T05:05:19.298Z,6.39
2019-02-09T05:10:21.420Z,6.74
2019-02-09T05:15:23.755Z,6.79
2019-02-09T05:20:26.943Z,6.74
2019-02-09T05:25:29.069Z,6.83
2019-02-09T05:30:31.265Z,6.74
2019-02-09T05:35:33.164Z,6.67
2019-02-09T05:40:35.147Z,6.62
2019-02-09T05:45:37.058Z,6.54
2019-02-09T05:50:41.875Z,6.71
2019-02-09T05:55:45.275Z,6.78
2019-02-09T06:00:47.333Z,6.61
2019-02-09T06:05:49.548Z,6.56
2019-02-09T06:10:51.427Z,6.67
2019-02-09T06:15:53.339Z,6.68
2019-02-09T06:20:55.240Z,6.75
2019-02-09T06:25:57.709Z,6.78
2019-02-09T06:30:59.826Z,6.77
2019-02-09T06:36:01.880Z,6.84
2019-02-09T06:41:04.870Z,6.80
2019-02-09T06:46:07.131Z,6.81
2019-02-09T06:51:09.134Z,6.88
2019-02-09T06:56:11.236Z,6.85
2019-02-09T07:01:13.181Z,6.78
2019-02-09T07:06:15.121Z,6.70
2019-02-09T07:11:17.106Z,6.61
2019-02-09T07:16:19.056Z,6.63
2019-02-09T07:21:21.190Z,6.66
2019-02-09T07:26:23.628Z,6.64
2019-02-09T07:31:25.649Z,6.62
2019-02-09T07:36:27.582Z,6.60
2019-02-09T07:41:29.668Z,6.63
2019-02-09T07:46:31.697Z,6.63
2019-02-09T07:51:33.616Z,6.67
2019-02-09T07:56:35.514Z,6.72
2019-02-09T08:01:37.416Z,6.74
2019-02-09T08:06:41.250Z,6.92
2019-02-09T08:11:43.243Z,7.32
2019-02-09T08:16:46.385Z,7.28
2019-02-09T08:21:48.294Z,7.44
2019-02-09T08:26:50.407Z,7.49
2019-02-09T08:31:52.452Z,7.61
2019-02-09T08:36:54.770Z,7.64
2019-02-09T08:41:56.767Z,7.79
2019-02-09T08:46:58.683Z,8.20
2019-02-09T08:52:00.661Z,8.17
2019-02-09T08:57:02.752Z,8.29
2019-02-09T09:02:04.877Z,8.34
2019-02-09T09:07:06.980Z,8.57
2019-02-09T09:12:08.865Z,8.79
2019-02-09T09:17:10.755Z,8.89
2019-02-09T09:22:12.685Z,9.10
2019-02-09T09:27:14.694Z,9.26
2019-02-09T09:32:16.788Z,9.52
2019-02-09T09:37:18.735Z,9.47
2019-02-09T09:42:20.643Z,9.42
2019-02-09T09:47:22.525Z,9.30
2019-02-09T09:52:24.421Z,9.46
2019-02-09T09:57:26.301Z,9.45
2019-02-09T10:02:28.237Z,9.58
2019-02-09T10:07:30.155Z,9.75
2019-02-09T10:12:32.146Z,9.95
2019-02-09T10:17:34.142Z,9.80
2019-02-09T10:22:36.050Z,9.85
2019-02-09T10:27:38.264Z,9.59
2019-02-09T10:32:44.425Z,9.52
2019-02-09T10:37:44.598Z,9.44
2019-02-09T10:42:47.029Z,9.48
2019-02-09T10:47:49.858Z,9.57
2019-02-09T10:52:52.035Z,9.75
2019-02-09T10:57:54.296Z,9.86
2019-02-09T11:02:56.545Z,9.80
2019-02-09T11:07:58.548Z,9.76
2019-02-09T11:13:00.668Z,9.86
2019-02-09T11:18:03.677Z,9.99
2019-02-09T11:23:06.112Z,10.34
2019-02-09T11:28:08.289Z,10.39
2019-02-09T11:33:10.559Z,10.59
2019-02-09T11:38:12.647Z,10.69
2019-02-09T11:43:14.594Z,10.61
2019-02-09T11:48:16.525Z,10.50
2019-02-09T11:53:18.420Z,10.50
2019-02-09T11:58:20.378Z,10.35
2019-02-09T12:03:22.416Z,10.37
2019-02-09T12:08:24.330Z,10.25
2019-02-09T12:13:26.345Z,10.78
2019-02-09T12:18:28.282Z,10.64
2019-02-09T12:23:30.238Z,11.08
2019-02-09T12:28:32.130Z,11.64
2019-02-09T12:33:34.449Z,11.59
2019-02-09T12:38:37.253Z,11.39
2019-02-09T12:43:39.159Z,11.18
2019-02-09T12:48:41.396Z,11.20
2019-02-09T12:53:43.282Z,11.11
2019-02-09T12:58:45.318Z,11.13
2019-02-09T13:03:47.483Z,10.80
2019-02-09T13:08:49.396Z,10.60
2019-02-09T13:13:51.349Z,10.60
2019-02-09T13:18:53.262Z,10.38
2019-02-09T13:23:55.571Z,10.46
2019-02-09T13:28:58.424Z,10.73
2019-02-09T13:34:00.648Z,10.73
2019-02-09T13:39:04.651Z,10.73
2019-02-09T13:44:07.722Z,10.54
2019-02-09T13:49:09.961Z,10.69
2019-02-09T13:54:12.123Z,10.56
2019-02-09T13:59:14.045Z,10.35
2019-02-09T14:04:16.952Z,10.28
2019-02-09T14:09:18.844Z,10.39
2019-02-09T14:14:21.055Z,11.02
2019-02-09T14:19:22.966Z,11.00
2019-02-09T14:24:25.021Z,11.38
2019-02-09T14:29:27.117Z,12.21
2019-02-09T14:34:29.567Z,11.79
2019-02-09T14:39:31.567Z,11.02
2019-02-09T14:44:33.625Z,11.32
2019-02-09T14:49:35.527Z,11.04
2019-02-09T14:54:37.591Z,10.44
2019-02-09T14:59:39.628Z,10.29
2019-02-09T15:04:41.536Z,10.82
2019-02-09T15:09:43.773Z,10.49
2019-02-09T15:14:45.718Z,10.41
2019-02-09T15:19:47.724Z,10.42
2019-02-09T15:24:49.792Z,10.88
2019-02-09T15:29:51.769Z,10.63
2019-02-09T15:34:53.695Z,10.63
2019-02-09T15:39:55.625Z,10.48
2019-02-09T15:44:57.988Z,10.41
2019-02-09T15:49:59.985Z,10.04
2019-02-09T15:55:02.003Z,10.14
2019-02-09T16:00:09.507Z,10.02
2019-02-09T16:05:11.826Z,9.56
2019-02-09T16:10:15.094Z,9.32
2019-02-09T16:15:23.220Z,9.39
2019-02-09T16:20:25.191Z,9.14
2019-02-09T16:25:27.524Z,9.26
2019-02-09T16:30:30.008Z,9.06
2019-02-09T16:35:32.606Z,8.95
2019-02-09T16:40:34.833Z,8.89
2019-02-09T16:45:38.168Z,8.81
2019-02-09T16:50:40.061Z,8.72
2019-02-09T16:55:42.036Z,8.66
2019-02-09T17:00:44.459Z,8.70
2019-02-09T17:05:46.467Z,8.73
2019-02-09T17:10:48.498Z,8.91
2019-02-09T17:15:50.590Z,8.85
2019-02-09T17:20:53.492Z,8.73
2019-02-09T17:25:55.477Z,8.75
2019-02-09T17:30:57.429Z,8.55
2019-02-09T17:35:59.342Z,8.50
2019-02-09T17:41:01.340Z,8.47
2019-02-09T17:46:14.358Z,8.49
2019-02-09T17:51:17.770Z,8.28
2019-02-09T17:56:19.667Z,8.13
2019-02-09T18:01:21.810Z,8.06
2019-02-09T18:06:24.896Z,7.99
2019-02-09T18:11:26.933Z,7.88
2019-02-09T18:16:29.045Z,7.93
2019-02-09T18:21:31.029Z,7.82
2019-02-09T18:26:32.993Z,7.75
2019-02-09T18:31:36.745Z,7.71
2019-02-09T18:36:38.735Z,7.61
2019-02-09T18:41:40.646Z,7.61
2019-02-09T18:46:42.595Z,7.62
2019-02-09T18:51:45.273Z,7.45
2019-02-09T18:56:47.424Z,7.40
2019-02-09T19:01:49.553Z,7.33
2019-02-09T19:06:52.058Z,7.33
2019-02-09T19:11:55.223Z,7.36
2019-02-09T19:16:57.514Z,7.34
2019-02-09T19:21:59.499Z,7.28
2019-02-09T19:27:01.427Z,7.28
2019-02-09T19:32:03.764Z,7.23
2019-02-09T19:37:05.869Z,7.23
2019-02-09T19:42:07.909Z,7.22
2019-02-09T19:47:09.801Z,7.16
2019-02-09T19:52:12.005Z,7.02
2019-02-09T19:57:13.966Z,6.86
2019-02-09T20:02:15.861Z,6.75
2019-02-09T20:07:17.762Z,6.62
2019-02-09T20:12:19.844Z,6.80
2019-02-09T20:17:21.938Z,7.07
2019-02-09T20:22:23.874Z,7.03
2019-02-09T20:27:26.222Z,7.14
2019-02-09T20:32:28.413Z,7.13
2019-02-09T20:37:30.461Z,7.26
2019-02-09T20:42:32.341Z,7.11
2019-02-09T20:47:34.350Z,7.11
2019-02-09T20:52:36.234Z,6.93
2019-02-09T20:57:38.385Z,6.88
2019-02-09T21:02:40.434Z,6.74
2019-02-09T21:07:42.619Z,6.65
2019-02-09T21:12:45.765Z,6.49
2019-02-09T21:17:47.796Z,6.52
2019-02-09T21:22:50.097Z,6.47
2019-02-09T21:27:52.143Z,6.68
2019-02-09T21:32:54.672Z,6.80
2019-02-09T21:37:56.718Z,6.90
2019-02-09T21:42:59.102Z,6.90
2019-02-09T21:48:01.226Z,6.94
2019-02-09T21:53:05.127Z,6.94
2019-02-09T21:58:08.023Z,6.95
2019-02-09T22:03:11.342Z,6.80
2019-02-09T22:08:19.582Z,6.70
2019-02-09T22:13:18.602Z,6.62
2019-02-09T22:18:21.889Z,6.65
2019-02-09T22:23:23.746Z,6.56
2019-02-09T22:28:25.641Z,6.59
2019-02-09T22:33:27.694Z,6.61
2019-02-09T22:38:30.141Z,6.52
2019-02-09T22:43:32.186Z,6.47
2019-02-09T22:48:34.109Z,6.57
2019-02-09T22:53:36.029Z,6.51
2019-02-09T22:58:37.913Z,6.33
2019-02-09T23:03:54.335Z,6.24
2019-02-09T23:08:56.272Z,6.25
2019-02-09T23:13:58.206Z,6.26
2019-02-09T23:19:00.114Z,6.23
2019-02-09T23:24:02.138Z,6.19
2019-02-09T23:29:04.250Z,6.20
2019-02-09T23:34:06.269Z,6.21
2019-02-09T23:39:08.260Z,6.13
2019-02-09T23:44:10.318Z,6.17
2019-02-09T23:49:12.234Z,6.20
2019-02-09T23:54:14.959Z,6.28
2019-02-09T23:59:16.850Z,6.13
